sensor_id;sensor_type;location;lat;lon;timestamp;temperature;humidity
75685;HTU21D;64298;46.050;38.164;2024-02-15T00:01:01;7.14;83.32
75685;HTU21D;64298;46.050;38.164;2024-02-15T00:03:27;7.13;83.25
75685;HTU21D;64298;46.050;38.164;2024-02-15T00:05:53;7.10;83.19
75685;HTU21D;64298;46.050;38.164;2024-02-15T00:08:19;7.09;83.16
75685;HTU21D;64298;46.050;38.164;2024-02-15T00:10:46;7.09;83.13
75685;HTU21D;64298;46.050;38.164;2024-02-15T00:13:13;7.05;83.07
75685;HTU21D;64298;46.050;38.164;2024-02-15T00:15:39;7.04;83.05
75685;HTU21D;64298;46.050;38.164;2024-02-15T00:18:05;7.02;82.96
75685;HTU21D;64298;46.050;38.164;2024-02-15T00:20:32;6.99;82.94
75685;HTU21D;64298;46.050;38.164;2024-02-15T00:22:59;6.94;82.94
75685;HTU21D;64298;46.050;38.164;2024-02-15T00:25:26;6.91;82.97
75685;HTU21D;64298;46.050;38.164;2024-02-15T00:27:52;6.85;83.00
75685;HTU21D;64298;46.050;38.164;2024-02-15T00:30:18;6.82;83.00
75685;HTU21D;64298;46.050;38.164;2024-02-15T00:32:44;6.76;83.08
75685;HTU21D;64298;46.050;38.164;2024-02-15T00:35:12;6.70;83.16
75685;HTU21D;64298;46.050;38.164;2024-02-15T00:37:40;6.68;83.10
75685;HTU21D;64298;46.050;38.164;2024-02-15T00:40:07;6.63;83.02
75685;HTU21D;64298;46.050;38.164;2024-02-15T00:42:34;6.58;83.00
75685;HTU21D;64298;46.050;38.164;2024-02-15T00:45:00;6.56;82.87
75685;HTU21D;64298;46.050;38.164;2024-02-15T00:47:26;6.52;82.75
75685;HTU21D;64298;46.050;38.164;2024-02-15T00:49:54;6.51;82.71
75685;HTU21D;64298;46.050;38.164;2024-02-15T00:52:20;6.50;82.74
75685;HTU21D;64298;46.050;38.164;2024-02-15T00:54:46;6.46;82.83
75685;HTU21D;64298;46.050;38.164;2024-02-15T00:57:12;6.43;82.88
75685;HTU21D;64298;46.050;38.164;2024-02-15T00:59:38;6.40;82.84
75685;HTU21D;64298;46.050;38.164;2024-02-15T01:02:04;6.38;82.78
75685;HTU21D;64298;46.050;38.164;2024-02-15T01:04:34;6.34;82.75
75685;HTU21D;64298;46.050;38.164;2024-02-15T01:07:00;6.30;82.64
75685;HTU21D;64298;46.050;38.164;2024-02-15T01:09:26;6.30;82.64
75685;HTU21D;64298;46.050;38.164;2024-02-15T01:11:52;6.28;82.58
75685;HTU21D;64298;46.050;38.164;2024-02-15T01:14:18;6.28;82.59
75685;HTU21D;64298;46.050;38.164;2024-02-15T01:16:44;6.27;82.55
75685;HTU21D;64298;46.050;38.164;2024-02-15T01:19:10;6.21;82.44
75685;HTU21D;64298;46.050;38.164;2024-02-15T01:21:36;6.20;82.44
75685;HTU21D;64298;46.050;38.164;2024-02-15T01:24:03;6.16;82.38
75685;HTU21D;64298;46.050;38.164;2024-02-15T01:26:32;6.15;82.33
75685;HTU21D;64298;46.050;38.164;2024-02-15T01:28:58;6.13;82.33
75685;HTU21D;64298;46.050;38.164;2024-02-15T01:31:24;6.11;82.33
75685;HTU21D;64298;46.050;38.164;2024-02-15T01:33:50;6.09;82.30
75685;HTU21D;64298;46.050;38.164;2024-02-15T01:36:17;6.06;82.30
75685;HTU21D;64298;46.050;38.164;2024-02-15T01:38:44;6.00;82.32
75685;HTU21D;64298;46.050;38.164;2024-02-15T01:41:10;5.97;82.36
75685;HTU21D;64298;46.050;38.164;2024-02-15T01:43:37;5.90;82.39
75685;HTU21D;64298;46.050;38.164;2024-02-15T01:46:08;5.84;82.40
75685;HTU21D;64298;46.050;38.164;2024-02-15T01:48:36;5.78;82.42
75685;HTU21D;64298;46.050;38.164;2024-02-15T01:51:03;5.72;82.51
75685;HTU21D;64298;46.050;38.164;2024-02-15T01:53:30;5.68;82.58
75685;HTU21D;64298;46.050;38.164;2024-02-15T01:55:57;5.64;82.59
75685;HTU21D;64298;46.050;38.164;2024-02-15T01:58:26;5.60;82.60
75685;HTU21D;64298;46.050;38.164;2024-02-15T02:00:56;5.55;82.62
75685;HTU21D;64298;46.050;38.164;2024-02-15T02:03:23;5.53;82.64
75685;HTU21D;64298;46.050;38.164;2024-02-15T02:05:49;5.54;82.57
75685;HTU21D;64298;46.050;38.164;2024-02-15T02:08:15;5.53;82.55
75685;HTU21D;64298;46.050;38.164;2024-02-15T02:10:41;5.52;82.47
75685;HTU21D;64298;46.050;38.164;2024-02-15T02:13:09;5.49;82.40
75685;HTU21D;64298;46.050;38.164;2024-02-15T02:15:35;5.49;82.46
75685;HTU21D;64298;46.050;38.164;2024-02-15T02:18:04;5.50;82.41
75685;HTU21D;64298;46.050;38.164;2024-02-15T02:20:35;5.43;82.37
75685;HTU21D;64298;46.050;38.164;2024-02-15T02:23:09;5.45;82.43
75685;HTU21D;64298;46.050;38.164;2024-02-15T02:25:39;5.42;82.47
75685;HTU21D;64298;46.050;38.164;2024-02-15T02:28:08;5.38;82.46
75685;HTU21D;64298;46.050;38.164;2024-02-15T02:30:34;5.32;82.57
75685;HTU21D;64298;46.050;38.164;2024-02-15T02:33:00;5.26;82.57
75685;HTU21D;64298;46.050;38.164;2024-02-15T02:35:28;5.21;82.75
75685;HTU21D;64298;46.050;38.164;2024-02-15T02:37:56;5.17;82.87
75685;HTU21D;64298;46.050;38.164;2024-02-15T02:40:22;5.10;82.97
75685;HTU21D;64298;46.050;38.164;2024-02-15T02:42:52;5.07;83.15
75685;HTU21D;64298;46.050;38.164;2024-02-15T02:45:37;5.09;83.27
75685;HTU21D;64298;46.050;38.164;2024-02-15T02:48:03;5.10;83.29
75685;HTU21D;64298;46.050;38.164;2024-02-15T02:50:29;5.11;83.33
75685;HTU21D;64298;46.050;38.164;2024-02-15T02:52:56;5.11;83.43
75685;HTU21D;64298;46.050;38.164;2024-02-15T02:55:22;5.07;83.48
75685;HTU21D;64298;46.050;38.164;2024-02-15T02:57:48;5.07;83.53
75685;HTU21D;64298;46.050;38.164;2024-02-15T03:00:15;5.04;83.55
75685;HTU21D;64298;46.050;38.164;2024-02-15T03:02:42;4.98;83.42
75685;HTU21D;64298;46.050;38.164;2024-02-15T03:05:12;4.93;83.39
75685;HTU21D;64298;46.050;38.164;2024-02-15T03:07:39;4.91;83.44
75685;HTU21D;64298;46.050;38.164;2024-02-15T03:10:10;4.84;83.46
75685;HTU21D;64298;46.050;38.164;2024-02-15T03:12:39;4.80;83.65
75685;HTU21D;64298;46.050;38.164;2024-02-15T03:15:06;4.79;83.77
75685;HTU21D;64298;46.050;38.164;2024-02-15T03:17:43;4.77;83.68
75685;HTU21D;64298;46.050;38.164;2024-02-15T03:20:10;4.75;83.64
75685;HTU21D;64298;46.050;38.164;2024-02-15T03:22:53;4.71;83.68
75685;HTU21D;64298;46.050;38.164;2024-02-15T03:25:20;4.69;83.76
75685;HTU21D;64298;46.050;38.164;2024-02-15T03:27:50;4.71;83.76
75685;HTU21D;64298;46.050;38.164;2024-02-15T03:30:18;4.67;83.68
75685;HTU21D;64298;46.050;38.164;2024-02-15T03:32:48;4.66;83.65
75685;HTU21D;64298;46.050;38.164;2024-02-15T03:35:18;4.66;83.58
75685;HTU21D;64298;46.050;38.164;2024-02-15T03:37:44;4.65;83.54
75685;HTU21D;64298;46.050;38.164;2024-02-15T03:40:11;4.64;83.49
75685;HTU21D;64298;46.050;38.164;2024-02-15T03:42:37;4.60;83.58
75685;HTU21D;64298;46.050;38.164;2024-02-15T03:45:06;4.60;83.68
75685;HTU21D;64298;46.050;38.164;2024-02-15T03:47:32;4.60;83.63
75685;HTU21D;64298;46.050;38.164;2024-02-15T03:50:05;4.62;83.52
75685;HTU21D;64298;46.050;38.164;2024-02-15T03:52:31;4.63;83.45
75685;HTU21D;64298;46.050;38.164;2024-02-15T03:54:58;4.64;83.39
75685;HTU21D;64298;46.050;38.164;2024-02-15T03:57:28;4.64;83.39
75685;HTU21D;64298;46.050;38.164;2024-02-15T03:59:55;4.63;83.34
75685;HTU21D;64298;46.050;38.164;2024-02-15T04:02:23;4.59;83.39
75685;HTU21D;64298;46.050;38.164;2024-02-15T04:04:55;4.59;83.33
75685;HTU21D;64298;46.050;38.164;2024-02-15T04:07:24;4.58;83.42
75685;HTU21D;64298;46.050;38.164;2024-02-15T04:10:11;4.58;83.41
75685;HTU21D;64298;46.050;38.164;2024-02-15T04:12:38;4.58;83.31
75685;HTU21D;64298;46.050;38.164;2024-02-15T04:15:04;4.56;83.42
75685;HTU21D;64298;46.050;38.164;2024-02-15T04:17:38;4.54;83.46
75685;HTU21D;64298;46.050;38.164;2024-02-15T04:20:04;4.52;83.52
75685;HTU21D;64298;46.050;38.164;2024-02-15T04:22:32;4.50;83.51
75685;HTU21D;64298;46.050;38.164;2024-02-15T04:25:06;4.50;83.44
75685;HTU21D;64298;46.050;38.164;2024-02-15T04:27:33;4.48;83.42
75685;HTU21D;64298;46.050;38.164;2024-02-15T04:29:59;4.49;83.43
75685;HTU21D;64298;46.050;38.164;2024-02-15T04:32:25;4.48;83.42
75685;HTU21D;64298;46.050;38.164;2024-02-15T04:34:51;4.50;83.39
75685;HTU21D;64298;46.050;38.164;2024-02-15T04:37:17;4.52;83.36
75685;HTU21D;64298;46.050;38.164;2024-02-15T04:39:44;4.52;83.22
75685;HTU21D;64298;46.050;38.164;2024-02-15T04:42:11;4.49;83.13
75685;HTU21D;64298;46.050;38.164;2024-02-15T04:44:41;4.47;83.13
75685;HTU21D;64298;46.050;38.164;2024-02-15T04:47:07;4.44;83.23
75685;HTU21D;64298;46.050;38.164;2024-02-15T04:49:34;4.44;83.38
75685;HTU21D;64298;46.050;38.164;2024-02-15T04:52:04;4.42;83.39
75685;HTU21D;64298;46.050;38.164;2024-02-15T04:54:30;4.41;83.49
75685;HTU21D;64298;46.050;38.164;2024-02-15T04:56:58;4.42;83.49
75685;HTU21D;64298;46.050;38.164;2024-02-15T04:59:24;4.42;83.47
75685;HTU21D;64298;46.050;38.164;2024-02-15T05:01:55;4.42;83.55
75685;HTU21D;64298;46.050;38.164;2024-02-15T05:04:24;4.42;83.60
75685;HTU21D;64298;46.050;38.164;2024-02-15T05:06:50;4.44;83.56
75685;HTU21D;64298;46.050;38.164;2024-02-15T05:09:17;4.43;83.48
75685;HTU21D;64298;46.050;38.164;2024-02-15T05:12:02;4.42;83.41
75685;HTU21D;64298;46.050;38.164;2024-02-15T05:14:28;4.42;83.32
75685;HTU21D;64298;46.050;38.164;2024-02-15T05:16:54;4.42;83.31
75685;HTU21D;64298;46.050;38.164;2024-02-15T05:19:20;4.42;83.29
75685;HTU21D;64298;46.050;38.164;2024-02-15T05:21:47;4.43;83.23
75685;HTU21D;64298;46.050;38.164;2024-02-15T05:24:14;4.42;83.19
75685;HTU21D;64298;46.050;38.164;2024-02-15T05:26:46;4.41;83.20
75685;HTU21D;64298;46.050;38.164;2024-02-15T05:29:16;4.44;83.18
75685;HTU21D;64298;46.050;38.164;2024-02-15T05:31:42;4.42;83.22
75685;HTU21D;64298;46.050;38.164;2024-02-15T05:34:10;4.35;83.33
75685;HTU21D;64298;46.050;38.164;2024-02-15T05:36:37;4.34;83.45
75685;HTU21D;64298;46.050;38.164;2024-02-15T05:39:04;4.36;83.42
75685;HTU21D;64298;46.050;38.164;2024-02-15T05:41:31;4.41;83.30
75685;HTU21D;64298;46.050;38.164;2024-02-15T05:44:00;4.43;83.19
75685;HTU21D;64298;46.050;38.164;2024-02-15T05:46:26;4.44;83.05
75685;HTU21D;64298;46.050;38.164;2024-02-15T05:48:54;4.42;83.09
75685;HTU21D;64298;46.050;38.164;2024-02-15T05:51:20;4.44;83.11
75685;HTU21D;64298;46.050;38.164;2024-02-15T05:53:46;4.46;83.00
75685;HTU21D;64298;46.050;38.164;2024-02-15T05:56:13;4.48;82.90
75685;HTU21D;64298;46.050;38.164;2024-02-15T05:58:40;4.49;82.86
75685;HTU21D;64298;46.050;38.164;2024-02-15T06:01:06;4.46;82.78
75685;HTU21D;64298;46.050;38.164;2024-02-15T06:03:34;4.42;82.91
75685;HTU21D;64298;46.050;38.164;2024-02-15T06:06:03;4.42;82.96
75685;HTU21D;64298;46.050;38.164;2024-02-15T06:08:36;4.38;82.94
75685;HTU21D;64298;46.050;38.164;2024-02-15T06:11:03;4.37;82.96
75685;HTU21D;64298;46.050;38.164;2024-02-15T06:13:32;4.36;82.99
75685;HTU21D;64298;46.050;38.164;2024-02-15T06:15:59;4.35;82.97
75685;HTU21D;64298;46.050;38.164;2024-02-15T06:18:28;4.36;82.94
75685;HTU21D;64298;46.050;38.164;2024-02-15T06:20:59;4.34;82.86
75685;HTU21D;64298;46.050;38.164;2024-02-15T06:23:28;4.34;82.85
75685;HTU21D;64298;46.050;38.164;2024-02-15T06:25:55;4.34;82.80
75685;HTU21D;64298;46.050;38.164;2024-02-15T06:28:26;4.33;82.75
75685;HTU21D;64298;46.050;38.164;2024-02-15T06:31:11;4.34;82.73
75685;HTU21D;64298;46.050;38.164;2024-02-15T06:33:56;4.34;82.78
75685;HTU21D;64298;46.050;38.164;2024-02-15T06:36:47;4.34;82.87
75685;HTU21D;64298;46.050;38.164;2024-02-15T06:39:32;4.34;83.04
75685;HTU21D;64298;46.050;38.164;2024-02-15T06:42:10;4.34;83.00
75685;HTU21D;64298;46.050;38.164;2024-02-15T06:44:37;4.35;82.97
75685;HTU21D;64298;46.050;38.164;2024-02-15T06:47:06;4.34;82.92
75685;HTU21D;64298;46.050;38.164;2024-02-15T06:49:32;4.32;82.89
75685;HTU21D;64298;46.050;38.164;2024-02-15T06:52:17;4.35;82.81
75685;HTU21D;64298;46.050;38.164;2024-02-15T06:54:44;4.34;82.74
75685;HTU21D;64298;46.050;38.164;2024-02-15T06:57:10;4.35;82.78
75685;HTU21D;64298;46.050;38.164;2024-02-15T06:59:36;4.38;82.73
75685;HTU21D;64298;46.050;38.164;2024-02-15T07:02:05;4.36;82.79
75685;HTU21D;64298;46.050;38.164;2024-02-15T07:04:33;4.38;82.84
75685;HTU21D;64298;46.050;38.164;2024-02-15T07:06:59;4.42;82.81
75685;HTU21D;64298;46.050;38.164;2024-02-15T07:09:27;4.41;82.74
75685;HTU21D;64298;46.050;38.164;2024-02-15T07:11:53;4.39;82.87
75685;HTU21D;64298;46.050;38.164;2024-02-15T07:14:19;4.39;83.02
75685;HTU21D;64298;46.050;38.164;2024-02-15T07:16:46;4.42;82.98
75685;HTU21D;64298;46.050;38.164;2024-02-15T07:19:15;4.42;82.90
75685;HTU21D;64298;46.050;38.164;2024-02-15T07:21:42;4.43;82.83
75685;HTU21D;64298;46.050;38.164;2024-02-15T07:24:09;4.42;82.91
75685;HTU21D;64298;46.050;38.164;2024-02-15T07:26:36;4.45;82.88
75685;HTU21D;64298;46.050;38.164;2024-02-15T07:29:02;4.45;82.84
75685;HTU21D;64298;46.050;38.164;2024-02-15T07:31:32;4.42;82.91
75685;HTU21D;64298;46.050;38.164;2024-02-15T07:34:01;4.41;82.85
75685;HTU21D;64298;46.050;38.164;2024-02-15T07:36:27;4.41;82.90
75685;HTU21D;64298;46.050;38.164;2024-02-15T07:38:54;4.42;82.89
75685;HTU21D;64298;46.050;38.164;2024-02-15T07:41:23;4.42;82.82
75685;HTU21D;64298;46.050;38.164;2024-02-15T07:43:50;4.44;82.78
75685;HTU21D;64298;46.050;38.164;2024-02-15T07:46:18;4.47;82.77
75685;HTU21D;64298;46.050;38.164;2024-02-15T07:48:44;4.48;82.73
75685;HTU21D;64298;46.050;38.164;2024-02-15T07:51:14;4.47;82.64
75685;HTU21D;64298;46.050;38.164;2024-02-15T07:53:49;4.47;82.70
75685;HTU21D;64298;46.050;38.164;2024-02-15T07:56:17;4.49;82.63
75685;HTU21D;64298;46.050;38.164;2024-02-15T07:58:44;4.50;82.57
75685;HTU21D;64298;46.050;38.164;2024-02-15T08:01:14;4.52;82.49
75685;HTU21D;64298;46.050;38.164;2024-02-15T08:03:40;4.53;82.41
75685;HTU21D;64298;46.050;38.164;2024-02-15T08:06:16;4.56;82.31
75685;HTU21D;64298;46.050;38.164;2024-02-15T08:08:44;4.57;82.25
75685;HTU21D;64298;46.050;38.164;2024-02-15T08:11:14;4.60;82.23
75685;HTU21D;64298;46.050;38.164;2024-02-15T08:13:46;4.61;82.15
75685;HTU21D;64298;46.050;38.164;2024-02-15T08:16:16;4.65;82.10
75685;HTU21D;64298;46.050;38.164;2024-02-15T08:18:43;4.66;81.99
75685;HTU21D;64298;46.050;38.164;2024-02-15T08:21:10;4.66;81.84
75685;HTU21D;64298;46.050;38.164;2024-02-15T08:23:36;4.63;81.71
75685;HTU21D;64298;46.050;38.164;2024-02-15T08:26:03;4.65;81.66
75685;HTU21D;64298;46.050;38.164;2024-02-15T08:28:29;4.66;81.55
75685;HTU21D;64298;46.050;38.164;2024-02-15T08:30:55;4.69;81.50
75685;HTU21D;64298;46.050;38.164;2024-02-15T08:33:24;4.72;81.43
75685;HTU21D;64298;46.050;38.164;2024-02-15T08:35:51;4.73;81.39
75685;HTU21D;64298;46.050;38.164;2024-02-15T08:38:24;4.75;81.39
75685;HTU21D;64298;46.050;38.164;2024-02-15T08:40:50;4.77;81.38
75685;HTU21D;64298;46.050;38.164;2024-02-15T08:43:18;4.78;81.34
75685;HTU21D;64298;46.050;38.164;2024-02-15T08:45:44;4.81;81.33
75685;HTU21D;64298;46.050;38.164;2024-02-15T08:48:11;4.86;81.14
75685;HTU21D;64298;46.050;38.164;2024-02-15T08:50:39;4.86;81.07
75685;HTU21D;64298;46.050;38.164;2024-02-15T08:53:07;4.86;80.98
75685;HTU21D;64298;46.050;38.164;2024-02-15T08:55:33;4.88;80.97
75685;HTU21D;64298;46.050;38.164;2024-02-15T08:58:01;4.89;80.85
75685;HTU21D;64298;46.050;38.164;2024-02-15T09:00:28;4.89;80.70
75685;HTU21D;64298;46.050;38.164;2024-02-15T09:02:54;4.86;80.78
75685;HTU21D;64298;46.050;38.164;2024-02-15T09:05:23;4.84;80.76
75685;HTU21D;64298;46.050;38.164;2024-02-15T09:07:50;4.83;80.78
75685;HTU21D;64298;46.050;38.164;2024-02-15T09:10:17;4.90;80.81
75685;HTU21D;64298;46.050;38.164;2024-02-15T09:12:44;4.94;80.69
75685;HTU21D;64298;46.050;38.164;2024-02-15T09:15:31;4.92;80.41
75685;HTU21D;64298;46.050;38.164;2024-02-15T09:17:57;4.91;80.52
75685;HTU21D;64298;46.050;38.164;2024-02-15T09:20:23;4.93;80.50
75685;HTU21D;64298;46.050;38.164;2024-02-15T09:23:12;4.93;80.37
75685;HTU21D;64298;46.050;38.164;2024-02-15T09:25:38;4.96;80.40
75685;HTU21D;64298;46.050;38.164;2024-02-15T09:28:04;4.98;80.29
75685;HTU21D;64298;46.050;38.164;2024-02-15T09:30:31;5.02;80.31
75685;HTU21D;64298;46.050;38.164;2024-02-15T09:32:57;5.06;80.30
75685;HTU21D;64298;46.050;38.164;2024-02-15T09:35:23;5.07;80.19
75685;HTU21D;64298;46.050;38.164;2024-02-15T09:37:50;5.05;80.22
75685;HTU21D;64298;46.050;38.164;2024-02-15T09:40:17;5.06;80.29
75685;HTU21D;64298;46.050;38.164;2024-02-15T09:42:44;5.08;80.29
75685;HTU21D;64298;46.050;38.164;2024-02-15T09:45:12;5.05;80.25
75685;HTU21D;64298;46.050;38.164;2024-02-15T09:47:38;5.04;80.36
75685;HTU21D;64298;46.050;38.164;2024-02-15T09:50:09;5.02;80.36
75685;HTU21D;64298;46.050;38.164;2024-02-15T09:52:43;5.01;80.30
75685;HTU21D;64298;46.050;38.164;2024-02-15T09:55:10;4.96;80.31
75685;HTU21D;64298;46.050;38.164;2024-02-15T09:57:46;4.96;80.40
75685;HTU21D;64298;46.050;38.164;2024-02-15T10:00:13;4.94;80.30
75685;HTU21D;64298;46.050;38.164;2024-02-15T10:02:44;4.98;80.41
75685;HTU21D;64298;46.050;38.164;2024-02-15T10:05:11;5.03;80.29
75685;HTU21D;64298;46.050;38.164;2024-02-15T10:07:39;5.03;80.20
75685;HTU21D;64298;46.050;38.164;2024-02-15T10:10:22;5.03;80.21
75685;HTU21D;64298;46.050;38.164;2024-02-15T10:12:52;5.00;80.04
75685;HTU21D;64298;46.050;38.164;2024-02-15T10:15:38;4.91;80.09
75685;HTU21D;64298;46.050;38.164;2024-02-15T10:18:23;4.79;80.21
75685;HTU21D;64298;46.050;38.164;2024-02-15T10:20:57;4.78;80.39
75685;HTU21D;64298;46.050;38.164;2024-02-15T10:23:23;4.71;80.37
75685;HTU21D;64298;46.050;38.164;2024-02-15T10:25:50;4.65;80.37
75685;HTU21D;64298;46.050;38.164;2024-02-15T10:28:25;4.57;80.53
75685;HTU21D;64298;46.050;38.164;2024-02-15T10:30:53;4.53;80.62
75685;HTU21D;64298;46.050;38.164;2024-02-15T10:33:21;4.53;80.71
75685;HTU21D;64298;46.050;38.164;2024-02-15T10:36:07;4.58;80.71
75685;HTU21D;64298;46.050;38.164;2024-02-15T10:38:34;4.56;80.62
75685;HTU21D;64298;46.050;38.164;2024-02-15T10:41:06;4.54;80.59
75685;HTU21D;64298;46.050;38.164;2024-02-15T10:43:36;4.51;80.58
75685;HTU21D;64298;46.050;38.164;2024-02-15T10:46:05;4.52;80.64
75685;HTU21D;64298;46.050;38.164;2024-02-15T10:48:35;4.50;80.57
75685;HTU21D;64298;46.050;38.164;2024-02-15T10:51:04;4.43;80.56
75685;HTU21D;64298;46.050;38.164;2024-02-15T10:53:35;4.39;80.68
75685;HTU21D;64298;46.050;38.164;2024-02-15T10:56:26;4.38;80.76
75685;HTU21D;64298;46.050;38.164;2024-02-15T10:59:16;4.39;80.82
75685;HTU21D;64298;46.050;38.164;2024-02-15T11:01:42;4.43;80.83
75685;HTU21D;64298;46.050;38.164;2024-02-15T11:04:11;4.43;80.81
75685;HTU21D;64298;46.050;38.164;2024-02-15T11:06:39;4.45;80.75
75685;HTU21D;64298;46.050;38.164;2024-02-15T11:09:09;4.43;80.75
75685;HTU21D;64298;46.050;38.164;2024-02-15T11:11:38;4.43;80.75
75685;HTU21D;64298;46.050;38.164;2024-02-15T11:16:49;4.33;80.78
75685;HTU21D;64298;46.050;38.164;2024-02-15T11:19:48;4.33;80.88
75685;HTU21D;64298;46.050;38.164;2024-02-15T11:22:15;4.32;80.85
75685;HTU21D;64298;46.050;38.164;2024-02-15T11:24:50;4.33;80.95
75685;HTU21D;64298;46.050;38.164;2024-02-15T11:27:28;4.35;80.97
75685;HTU21D;64298;46.050;38.164;2024-02-15T11:29:59;4.39;80.97
75685;HTU21D;64298;46.050;38.164;2024-02-15T11:32:49;4.37;80.84
75685;HTU21D;64298;46.050;38.164;2024-02-15T11:35:18;4.37;80.92
75685;HTU21D;64298;46.050;38.164;2024-02-15T11:42:44;4.47;80.69
75685;HTU21D;64298;46.050;38.164;2024-02-15T11:45:12;4.48;80.55
75685;HTU21D;64298;46.050;38.164;2024-02-15T11:47:40;4.50;80.56
75685;HTU21D;64298;46.050;38.164;2024-02-15T11:50:11;4.51;80.44
75685;HTU21D;64298;46.050;38.164;2024-02-15T11:52:41;4.48;80.40
75685;HTU21D;64298;46.050;38.164;2024-02-15T11:55:12;4.49;80.49
75685;HTU21D;64298;46.050;38.164;2024-02-15T11:57:42;4.46;80.40
75685;HTU21D;64298;46.050;38.164;2024-02-15T12:00:35;4.46;80.33
75685;HTU21D;64298;46.050;38.164;2024-02-15T12:03:20;4.42;80.25
75685;HTU21D;64298;46.050;38.164;2024-02-15T12:06:05;4.34;80.30
75685;HTU21D;64298;46.050;38.164;2024-02-15T12:08:53;4.33;80.40
75685;HTU21D;64298;46.050;38.164;2024-02-15T12:11:38;4.33;80.42
75685;HTU21D;64298;46.050;38.164;2024-02-15T12:14:22;4.32;80.43
75685;HTU21D;64298;46.050;38.164;2024-02-15T12:17:27;4.32;80.40
75685;HTU21D;64298;46.050;38.164;2024-02-15T12:20:12;4.33;80.43
75685;HTU21D;64298;46.050;38.164;2024-02-15T12:22:47;4.31;80.43
75685;HTU21D;64298;46.050;38.164;2024-02-15T12:25:21;4.30;80.45
75685;HTU21D;64298;46.050;38.164;2024-02-15T12:27:55;4.30;80.50
75685;HTU21D;64298;46.050;38.164;2024-02-15T12:30:21;4.27;80.49
75685;HTU21D;64298;46.050;38.164;2024-02-15T12:32:51;4.31;80.52
75685;HTU21D;64298;46.050;38.164;2024-02-15T12:35:21;4.30;80.44
75685;HTU21D;64298;46.050;38.164;2024-02-15T12:38:02;4.29;80.37
75685;HTU21D;64298;46.050;38.164;2024-02-15T12:40:39;4.27;80.32
75685;HTU21D;64298;46.050;38.164;2024-02-15T12:43:10;4.23;80.27
75685;HTU21D;64298;46.050;38.164;2024-02-15T12:45:41;4.20;80.33
75685;HTU21D;64298;46.050;38.164;2024-02-15T12:48:08;4.20;80.35
75685;HTU21D;64298;46.050;38.164;2024-02-15T12:50:36;4.22;80.38
75685;HTU21D;64298;46.050;38.164;2024-02-15T12:53:02;4.20;80.36
75685;HTU21D;64298;46.050;38.164;2024-02-15T12:55:31;4.20;80.43
75685;HTU21D;64298;46.050;38.164;2024-02-15T12:58:01;4.20;80.47
75685;HTU21D;64298;46.050;38.164;2024-02-15T13:00:30;4.20;80.46
75685;HTU21D;64298;46.050;38.164;2024-02-15T13:03:03;4.19;80.49
75685;HTU21D;64298;46.050;38.164;2024-02-15T13:05:30;4.18;80.49
75685;HTU21D;64298;46.050;38.164;2024-02-15T13:07:57;4.17;80.46
75685;HTU21D;64298;46.050;38.164;2024-02-15T13:10:24;4.19;80.45
75685;HTU21D;64298;46.050;38.164;2024-02-15T13:12:52;4.18;80.34
75685;HTU21D;64298;46.050;38.164;2024-02-15T13:15:20;4.16;80.35
75685;HTU21D;64298;46.050;38.164;2024-02-15T13:17:48;4.18;80.41
75685;HTU21D;64298;46.050;38.164;2024-02-15T13:20:18;4.20;80.41
75685;HTU21D;64298;46.050;38.164;2024-02-15T13:22:46;4.21;80.40
75685;HTU21D;64298;46.050;38.164;2024-02-15T13:25:16;4.22;80.36
75685;HTU21D;64298;46.050;38.164;2024-02-15T13:27:43;4.21;80.28
75685;HTU21D;64298;46.050;38.164;2024-02-15T13:30:09;4.15;80.30
75685;HTU21D;64298;46.050;38.164;2024-02-15T13:32:37;4.14;80.39
75685;HTU21D;64298;46.050;38.164;2024-02-15T13:35:08;4.13;80.32
75685;HTU21D;64298;46.050;38.164;2024-02-15T13:37:43;4.14;80.30
75685;HTU21D;64298;46.050;38.164;2024-02-15T13:40:10;4.13;80.26
75685;HTU21D;64298;46.050;38.164;2024-02-15T13:42:46;4.12;80.26
75685;HTU21D;64298;46.050;38.164;2024-02-15T13:45:22;4.06;80.22
75685;HTU21D;64298;46.050;38.164;2024-02-15T13:47:53;4.04;80.34
75685;HTU21D;64298;46.050;38.164;2024-02-15T13:50:22;4.04;80.38
75685;HTU21D;64298;46.050;38.164;2024-02-15T13:52:49;4.03;80.36
75685;HTU21D;64298;46.050;38.164;2024-02-15T13:55:17;4.04;80.33
75685;HTU21D;64298;46.050;38.164;2024-02-15T13:57:48;4.02;80.34
75685;HTU21D;64298;46.050;38.164;2024-02-15T14:00:17;4.02;80.29
75685;HTU21D;64298;46.050;38.164;2024-02-15T14:02:57;4.04;80.32
75685;HTU21D;64298;46.050;38.164;2024-02-15T14:05:26;4.05;80.26
75685;HTU21D;64298;46.050;38.164;2024-02-15T14:10:23;4.04;80.12
75685;HTU21D;64298;46.050;38.164;2024-02-15T14:12:51;4.01;80.06
75685;HTU21D;64298;46.050;38.164;2024-02-15T14:15:24;3.99;80.07
75685;HTU21D;64298;46.050;38.164;2024-02-15T14:17:50;3.98;80.06
75685;HTU21D;64298;46.050;38.164;2024-02-15T14:20:16;4.00;80.08
75685;HTU21D;64298;46.050;38.164;2024-02-15T14:22:46;4.00;80.10
75685;HTU21D;64298;46.050;38.164;2024-02-15T14:25:33;3.99;80.01
75685;HTU21D;64298;46.050;38.164;2024-02-15T14:28:00;3.99;79.97
75685;HTU21D;64298;46.050;38.164;2024-02-15T14:30:26;3.99;79.95
75685;HTU21D;64298;46.050;38.164;2024-02-15T14:33:13;3.98;79.98
75685;HTU21D;64298;46.050;38.164;2024-02-15T14:35:41;3.94;80.02
75685;HTU21D;64298;46.050;38.164;2024-02-15T14:38:11;3.90;80.07
75685;HTU21D;64298;46.050;38.164;2024-02-15T14:40:43;3.90;80.14
75685;HTU21D;64298;46.050;38.164;2024-02-15T14:43:17;3.90;80.11
75685;HTU21D;64298;46.050;38.164;2024-02-15T14:45:46;3.89;80.14
75685;HTU21D;64298;46.050;38.164;2024-02-15T14:48:13;3.89;80.11
75685;HTU21D;64298;46.050;38.164;2024-02-15T14:50:40;3.90;80.06
75685;HTU21D;64298;46.050;38.164;2024-02-15T14:53:08;3.86;79.95
75685;HTU21D;64298;46.050;38.164;2024-02-15T14:55:35;3.88;79.98
75685;HTU21D;64298;46.050;38.164;2024-02-15T14:58:01;3.87;79.98
75685;HTU21D;64298;46.050;38.164;2024-02-15T15:00:29;3.90;79.95
75685;HTU21D;64298;46.050;38.164;2024-02-15T15:02:56;3.89;79.93
75685;HTU21D;64298;46.050;38.164;2024-02-15T15:05:23;3.89;79.96
75685;HTU21D;64298;46.050;38.164;2024-02-15T15:08:07;3.90;79.95
75685;HTU21D;64298;46.050;38.164;2024-02-15T15:10:52;3.89;79.91
75685;HTU21D;64298;46.050;38.164;2024-02-15T15:13:38;3.89;79.87
75685;HTU21D;64298;46.050;38.164;2024-02-15T15:16:06;3.88;79.85
75685;HTU21D;64298;46.050;38.164;2024-02-15T15:18:33;3.88;79.86
75685;HTU21D;64298;46.050;38.164;2024-02-15T15:21:00;3.87;79.83
75685;HTU21D;64298;46.050;38.164;2024-02-15T15:23:27;3.85;79.80
75685;HTU21D;64298;46.050;38.164;2024-02-15T15:25:58;3.83;79.84
75685;HTU21D;64298;46.050;38.164;2024-02-15T15:28:25;3.84;79.80
75685;HTU21D;64298;46.050;38.164;2024-02-15T15:30:51;3.85;79.67
75685;HTU21D;64298;46.050;38.164;2024-02-15T15:33:17;3.82;79.52
75685;HTU21D;64298;46.050;38.164;2024-02-15T15:35:45;3.78;79.43
75685;HTU21D;64298;46.050;38.164;2024-02-15T15:38:11;3.77;79.27
75685;HTU21D;64298;46.050;38.164;2024-02-15T15:40:38;3.78;79.29